Hestrud (Nord, France) - 208 m
Donnes mto: Actuelle vendredi, 30/10/2020 13:14
Date Horaire Temp Out Temp. 4 Temp. E. min Temp. E. max Temp. Sol 1 Hum Out Hum. Sol 1 Press Rain Wind Dir Dir Solar Ev.Tr. UV Hi Solar Rad Dew Point Windchill Wind (Gust)
30/10/2020 13:14 13,9 C 0,0 C 13,8 C 13,9 C 13,9 C 94 % 76 cb 1021,6 hPa 0,0 mm 11,3 km/h (2 Bft) O-SO 247 31 min 0,102 mm 1,1 UV-I 311 W/m 12,9 C 11,3 C 16,1 km/h (3 Bft)
30/10/2020 12:14 13,5 C 0,0 C 13,5 C 13,5 C 13,3 C 93 % 77 cb 1021,7 hPa 0,0 mm 16,1 km/h (3 Bft) O-SO 247 30 min 0,076 mm 0,5 UV-I 100 W/m 12,4 C 9,0 C 25,7 km/h (4 Bft)
30/10/2020 11:14 12,6 C 0,0 C 12,6 C 12,6 C 12,8 C 96 % 78 cb 1021,6 hPa 0,0 mm 14,5 km/h (3 Bft) O-SO 247 9 min 0,076 mm 0,7 UV-I 137 W/m 12,0 C 8,5 C 19,3 km/h (3 Bft)
30/10/2020 10:14 12,7 C 0,0 C 12,7 C 12,7 C 12,2 C 94 % 78 cb 1021,2 hPa 0,0 mm 16,1 km/h (3 Bft) SO 225 3 min 0,051 mm 0,6 UV-I 118 W/m 11,8 C 8,0 C 24,1 km/h (4 Bft)
30/10/2020 09:14 12,3 C 0,0 C 12,3 C 12,3 C 12,2 C 95 % 79 cb 1020,9 hPa 0,0 mm 17,7 km/h (3 Bft) O-SO 247 0 min 0,025 mm 0,0 UV-I 63 W/m 11,5 C 7,0 C 24,1 km/h (4 Bft)
30/10/2020 08:14 12,1 C 0,0 C 12,1 C 12,1 C 11,7 C 95 % 78 cb 1020,5 hPa 0,0 mm 14,5 km/h (3 Bft) O-SO 247 0 min 0,000 mm 0,0 UV-I 18 W/m 11,3 C 7,9 C 19,3 km/h (3 Bft)
30/10/2020 07:14 12,1 C 0,0 C 12,1 C 12,1 C 11,7 C 94 % 78 cb 1019,8 hPa 0,0 mm 19,3 km/h (3 Bft) O-SO 247 0 min 0,000 mm 0,0 UV-I 0 W/m 11,2 C 6,2 C 22,5 km/h (4 Bft)
30/10/2020 06:14 12,0 C 0,0 C 12,0 C 12,0 C 11,7 C 94 % 79 cb 1019,5 hPa 0,0 mm 14,5 km/h (3 Bft) O-SO 247 0 min 0,000 mm 0,0 UV-I 0 W/m 11,1 C 7,8 C 20,9 km/h (4 Bft)
30/10/2020 05:14 12,0 C 0,0 C 12,0 C 12,0 C 11,7 C 94 % 79 cb 1019,1 hPa 0,0 mm 16,1 km/h (3 Bft) O-SO 247 0 min 0,025 mm 0,0 UV-I 0 W/m 11,1 C 7,1 C 20,9 km/h (4 Bft)
30/10/2020 04:14 12,2 C 0,0 C 12,2 C 12,2 C 11,7 C 93 % 78 cb 1018,9 hPa 0,0 mm 16,1 km/h (3 Bft) O-SO 247 0 min 0,000 mm 0,0 UV-I 0 W/m 11,1 C 7,4 C 19,3 km/h (3 Bft)
30/10/2020 03:14 12,3 C 0,0 C 12,2 C 12,3 C 11,7 C 94 % 78 cb 1018,9 hPa 0,0 mm 16,1 km/h (3 Bft) O-SO 247 0 min 0,000 mm 0,0 UV-I 0 W/m 11,4 C 7,5 C 22,5 km/h (4 Bft)
30/10/2020 02:14 12,3 C 0,0 C 12,3 C 12,3 C 11,7 C 95 % 78 cb 1019,1 hPa 0,0 mm 12,9 km/h (3 Bft) O-SO 247 0 min 0,000 mm 0,0 UV-I 0 W/m 11,5 C 8,8 C 17,7 km/h (3 Bft)
30/10/2020 01:14 12,3 C 0,0 C 12,3 C 12,3 C 11,7 C 96 % 78 cb 1018,6 hPa 0,0 mm 14,5 km/h (3 Bft) O-SO 247 0 min 0,000 mm 0,0 UV-I 0 W/m 11,7 C 8,1 C 19,3 km/h (3 Bft)
30/10/2020 00:14 12,1 C 0,0 C 12,1 C 12,2 C 11,7 C 96 % 79 cb 1018,4 hPa 0,0 mm 19,3 km/h (3 Bft) O-SO 247 0 min 0,000 mm 0,0 UV-I 0 W/m 11,5 C 6,2 C 29,0 km/h (5 Bft)
29/10/2020 23:14 11,9 C 0,0 C 11,9 C 11,9 C 11,7 C 97 % 78 cb 1018,2 hPa 0,0 mm 19,3 km/h (3 Bft) SO 225 0 min 0,000 mm 0,0 UV-I 0 W/m 11,4 C 6,0 C 32,2 km/h (5 Bft)
29/10/2020 22:14 11,8 C 0,0 C 11,7 C 11,8 C 11,7 C 97 % 78 cb 1018,5 hPa 0,0 mm 14,5 km/h (3 Bft) O-SO 247 0 min 0,000 mm 0,0 UV-I 0 W/m 11,3 C 7,5 C 17,7 km/h (3 Bft)
29/10/2020 21:14 11,5 C 0,0 C 11,4 C 11,5 C 11,1 C 97 % 78 cb 1018,3 hPa 0,0 mm 19,3 km/h (3 Bft) O-SO 247 0 min 0,000 mm 0,0 UV-I 0 W/m 11,0 C 5,4 C 30,6 km/h (5 Bft)
29/10/2020 20:14 11,1 C 0,0 C 11,1 C 11,1 C 11,1 C 97 % 78 cb 1018,2 hPa 0,0 mm 19,3 km/h (3 Bft) SO 225 0 min 0,000 mm 0,0 UV-I 0 W/m 10,6 C 4,9 C 25,7 km/h (4 Bft)
29/10/2020 19:14 10,6 C 0,0 C 10,6 C 10,6 C 10,6 C 97 % 76 cb 1018,0 hPa 0,0 mm 14,5 km/h (3 Bft) SO 225 0 min 0,000 mm 0,0 UV-I 0 W/m 10,1 C 6,1 C 19,3 km/h (3 Bft)
29/10/2020 18:14 10,2 C 0,0 C 10,2 C 10,2 C 10,6 C 97 % 76 cb 1017,9 hPa 0,2 mm 14,5 km/h (3 Bft) S-SO 202 0 min 0,000 mm 0,0 UV-I 0 W/m 9,7 C 5,6 C 22,5 km/h (4 Bft)
29/10/2020 17:14 9,9 C 0,0 C 9,9 C 9,9 C 10,0 C 96 % 71 cb 1018,0 hPa 0,6 mm 12,9 km/h (3 Bft) O-SO 247 0 min 0,025 mm 0,0 UV-I 0 W/m 9,3 C 6,0 C 16,1 km/h (3 Bft)
29/10/2020 16:14 10,4 C 0,0 C 10,4 C 10,4 C 10,6 C 95 % 80 cb 1018,3 hPa 0,4 mm 12,9 km/h (3 Bft) O-SO 247 0 min 0,051 mm 0,0 UV-I 18 W/m 9,6 C 6,5 C 17,7 km/h (3 Bft)
29/10/2020 15:14 10,9 C 0,0 C 10,9 C 10,9 C 11,1 C 93 % 80 cb 1018,5 hPa 0,0 mm 12,9 km/h (3 Bft) SO 225 8 min 0,076 mm 0,0 UV-I 88 W/m 9,8 C 7,1 C 16,1 km/h (3 Bft)
29/10/2020 14:14 11,5 C 0,0 C 11,5 C 11,5 C 11,1 C 91 % 80 cb 1018,6 hPa 0,0 mm 16,1 km/h (3 Bft) O-SO 247 1 min 0,076 mm 0,7 UV-I 153 W/m 10,1 C 6,5 C 24,1 km/h (4 Bft)
29/10/2020 14:00 11,5 C 0,0 C 11,5 C 11,5 C 11,1 C 92 % 81 cb 1018,6 hPa 0,0 mm 8,0 km/h (2 Bft) SO 225 0 min 0,076 mm 0,7 UV-I 146 W/m 10,2 C 10,4 C 11,3 km/h (2 Bft)
_ Min-Heure 16:59 14:00 16:59 17:00 17:08 14:35 16:44 17:45 - 14:00 - - - - - - 16:59 17:40 14:00
Minimum _ 9,9 C 0,0 C 9,9 C 9,9 C 10,0 C 90 % 71 cb 1017,7 hPa - 8,0 km/h (2 Bft) - - - - - - 9,3 C 2,9 C 11,3 km/h (2 Bft)
_ Max-Heure 13:13 14:00 12:54 13:13 13:09 19:53 14:00 11:39 15:30 10:04 - - 14:14 13:00 13:07 12:35 13:14 12:54 10:04
Maximum _ 13,9 C 0,0 C 13,8 C 13,9 C 13,9 C 98 % 81 cb 1021,8 hPa 0,2 mm 25,7 km/h
O-SO (4 Bft)
- - 1 min 0,102 mm 1,5 UV-I 341 W/m 12,9 C 12,8 C 41,8 km/h
O-SO (6 Bft)
Moyenne _ 11,8 C 0,0 C 11,8 C 11,8 C 11,6 C 95 % 78 cb 1019,2 hPa #1,2 mm 14,3 km/h (3 Bft) O-SO - #1:13 h #0,355 mm 0,8 UV-I 45 W/m 11,0 C 7,7 C 20,4 km/h (4 Bft)